PANC/ANC METAR and TAF weather

Enter ICAO airport designator
Station Type Date Time Source
PANC METAR 2019/08/19 07:53 UTC NOAA

PANC 190753Z 02013G21KT 10SM FEW005 16/M01 A2993 RMK AO2 SLP135 FU FEW005 T01561011


Station Type Date Time Source
PANC Decoded METAR 2019/08/19 07:53 UTC NOAA

Station name not available
Aug 19, 2019 - 03:53 AM EDT / 2019.08.19 0753 UTC
Wind: from the NNE (020 degrees) at 15 MPH (13 KT) gusting to 24 MPH (21 KT):0
Visibility: 10 mile(s):0
Sky conditions: mostly clear
Temperature: 60.1 F (15.6 C)
Dew Point: 30.0 F (-1.1 C)
Relative Humidity: 31%
Pressure (altimeter): 29.93 in. Hg (1013 hPa)
ob: PANC 190753Z 02013G21KT 10SM FEW005 16/M01 A2993 RMK AO2 SLP135 FU FEW005 T01561011
cycle: 8

Station Type Date Time Source
PANC TAF 2019/08/19 06:24 UTC NOAA

TAF PANC 190521Z 1906/2012 01011KT P6SM SKC
FM191500 VRB05KT P6SM SKC

Example: see airport list